sensor_id;sensor_type;location;lat;lon;timestamp;temperature;humidity
23633;DHT22;11993;48.748;9.166;2023-05-20T00:00:55;12.40;72.20
23633;DHT22;11993;48.748;9.166;2023-05-20T00:03:20;12.30;72.80
23633;DHT22;11993;48.748;9.166;2023-05-20T00:05:46;12.30;72.80
23633;DHT22;11993;48.748;9.166;2023-05-20T00:08:12;12.20;73.00
23633;DHT22;11993;48.748;9.166;2023-05-20T00:10:38;12.20;73.00
23633;DHT22;11993;48.748;9.166;2023-05-20T00:13:04;12.10;73.30
23633;DHT22;11993;48.748;9.166;2023-05-20T00:15:31;12.10;73.40
23633;DHT22;11993;48.748;9.166;2023-05-20T00:17:56;12.20;73.10
23633;DHT22;11993;48.748;9.166;2023-05-20T00:20:22;12.30;73.10
23633;DHT22;11993;48.748;9.166;2023-05-20T00:22:47;12.30;73.20
23633;DHT22;11993;48.748;9.166;2023-05-20T00:25:13;12.20;73.40
23633;DHT22;11993;48.748;9.166;2023-05-20T00:27:42;12.20;73.60
23633;DHT22;11993;48.748;9.166;2023-05-20T00:30:08;12.20;73.80
23633;DHT22;11993;48.748;9.166;2023-05-20T00:32:34;12.20;73.60
23633;DHT22;11993;48.748;9.166;2023-05-20T00:35:00;12.30;73.40
23633;DHT22;11993;48.748;9.166;2023-05-20T00:37:26;12.20;74.10
23633;DHT22;11993;48.748;9.166;2023-05-20T00:39:52;12.20;73.80
23633;DHT22;11993;48.748;9.166;2023-05-20T00:44:46;12.10;74.40
23633;DHT22;11993;48.748;9.166;2023-05-20T00:47:13;12.20;74.20
23633;DHT22;11993;48.748;9.166;2023-05-20T00:49:39;12.30;74.10
23633;DHT22;11993;48.748;9.166;2023-05-20T00:52:05;12.30;73.90
23633;DHT22;11993;48.748;9.166;2023-05-20T00:54:31;12.30;74.10
23633;DHT22;11993;48.748;9.166;2023-05-20T00:56:57;12.30;74.40
23633;DHT22;11993;48.748;9.166;2023-05-20T00:59:24;12.30;74.60
23633;DHT22;11993;48.748;9.166;2023-05-20T01:01:51;12.30;74.30
23633;DHT22;11993;48.748;9.166;2023-05-20T01:04:16;12.40;74.30
23633;DHT22;11993;48.748;9.166;2023-05-20T01:06:43;12.30;74.50
23633;DHT22;11993;48.748;9.166;2023-05-20T01:09:10;12.30;74.70
23633;DHT22;11993;48.748;9.166;2023-05-20T01:11:46;12.20;75.00
23633;DHT22;11993;48.748;9.166;2023-05-20T01:14:15;12.20;75.10
23633;DHT22;11993;48.748;9.166;2023-05-20T01:16:42;12.40;74.80
23633;DHT22;11993;48.748;9.166;2023-05-20T01:19:21;12.30;74.90
23633;DHT22;11993;48.748;9.166;2023-05-20T01:21:52;12.30;75.00
23633;DHT22;11993;48.748;9.166;2023-05-20T01:24:18;12.30;74.50
23633;DHT22;11993;48.748;9.166;2023-05-20T01:26:44;12.20;75.40
23633;DHT22;11993;48.748;9.166;2023-05-20T01:29:12;12.20;75.60
23633;DHT22;11993;48.748;9.166;2023-05-20T01:31:38;12.10;76.00
23633;DHT22;11993;48.748;9.166;2023-05-20T01:34:04;12.10;75.90
23633;DHT22;11993;48.748;9.166;2023-05-20T01:36:31;12.10;75.80
23633;DHT22;11993;48.748;9.166;2023-05-20T01:38:57;12.10;76.00
23633;DHT22;11993;48.748;9.166;2023-05-20T01:41:25;12.20;75.70
23633;DHT22;11993;48.748;9.166;2023-05-20T01:43:54;12.30;75.30
23633;DHT22;11993;48.748;9.166;2023-05-20T01:46:20;12.10;76.10
23633;DHT22;11993;48.748;9.166;2023-05-20T01:48:45;12.10;76.40
23633;DHT22;11993;48.748;9.166;2023-05-20T01:51:11;12.20;76.00
23633;DHT22;11993;48.748;9.166;2023-05-20T01:53:36;12.10;76.20
23633;DHT22;11993;48.748;9.166;2023-05-20T01:56:02;12.10;76.50
23633;DHT22;11993;48.748;9.166;2023-05-20T01:58:27;12.10;76.80
23633;DHT22;11993;48.748;9.166;2023-05-20T02:00:53;12.10;76.80
23633;DHT22;11993;48.748;9.166;2023-05-20T02:03:18;12.10;76.50
23633;DHT22;11993;48.748;9.166;2023-05-20T02:05:44;12.20;76.60
23633;DHT22;11993;48.748;9.166;2023-05-20T02:08:10;12.20;76.50
23633;DHT22;11993;48.748;9.166;2023-05-20T02:10:35;12.10;77.00
23633;DHT22;11993;48.748;9.166;2023-05-20T02:13:01;12.00;77.20
23633;DHT22;11993;48.748;9.166;2023-05-20T02:15:26;12.00;77.40
23633;DHT22;11993;48.748;9.166;2023-05-20T02:17:52;12.00;77.20
23633;DHT22;11993;48.748;9.166;2023-05-20T02:20:18;11.90;77.60
23633;DHT22;11993;48.748;9.166;2023-05-20T02:22:43;11.90;77.70
23633;DHT22;11993;48.748;9.166;2023-05-20T02:25:09;11.90;77.50
23633;DHT22;11993;48.748;9.166;2023-05-20T02:27:34;11.90;77.80
23633;DHT22;11993;48.748;9.166;2023-05-20T02:30:00;11.80;78.10
23633;DHT22;11993;48.748;9.166;2023-05-20T02:32:26;11.80;78.00
23633;DHT22;11993;48.748;9.166;2023-05-20T02:34:56;11.70;78.70
23633;DHT22;11993;48.748;9.166;2023-05-20T02:37:21;11.60;78.90
23633;DHT22;11993;48.748;9.166;2023-05-20T02:39:47;11.60;79.10
23633;DHT22;11993;48.748;9.166;2023-05-20T02:42:13;11.60;79.00
23633;DHT22;11993;48.748;9.166;2023-05-20T02:44:38;11.50;79.70
23633;DHT22;11993;48.748;9.166;2023-05-20T02:47:04;11.50;79.70
23633;DHT22;11993;48.748;9.166;2023-05-20T02:49:29;11.50;79.90
23633;DHT22;11993;48.748;9.166;2023-05-20T02:51:55;11.60;79.50
23633;DHT22;11993;48.748;9.166;2023-05-20T02:54:20;11.50;79.60
23633;DHT22;11993;48.748;9.166;2023-05-20T02:56:46;11.40;80.10
23633;DHT22;11993;48.748;9.166;2023-05-20T02:59:12;11.40;80.30
23633;DHT22;11993;48.748;9.166;2023-05-20T03:01:37;11.50;80.20
23633;DHT22;11993;48.748;9.166;2023-05-20T03:04:04;11.50;80.10
23633;DHT22;11993;48.748;9.166;2023-05-20T03:06:30;11.40;80.20
23633;DHT22;11993;48.748;9.166;2023-05-20T03:08:59;11.50;80.00
23633;DHT22;11993;48.748;9.166;2023-05-20T03:11:24;11.60;79.80
23633;DHT22;11993;48.748;9.166;2023-05-20T03:13:50;11.50;80.10
23633;DHT22;11993;48.748;9.166;2023-05-20T03:16:16;11.60;79.70
23633;DHT22;11993;48.748;9.166;2023-05-20T03:18:41;11.40;80.30
23633;DHT22;11993;48.748;9.166;2023-05-20T03:21:07;11.40;80.40
23633;DHT22;11993;48.748;9.166;2023-05-20T03:23:33;11.30;80.70
23633;DHT22;11993;48.748;9.166;2023-05-20T03:25:59;11.30;80.70
23633;DHT22;11993;48.748;9.166;2023-05-20T03:28:24;11.40;80.70
23633;DHT22;11993;48.748;9.166;2023-05-20T03:30:50;11.20;81.00
23633;DHT22;11993;48.748;9.166;2023-05-20T03:33:15;11.20;81.40
23633;DHT22;11993;48.748;9.166;2023-05-20T03:35:41;11.20;81.00
23633;DHT22;11993;48.748;9.166;2023-05-20T03:38:07;11.20;81.40
23633;DHT22;11993;48.748;9.166;2023-05-20T03:40:32;11.10;81.60
23633;DHT22;11993;48.748;9.166;2023-05-20T03:42:58;11.10;81.80
23633;DHT22;11993;48.748;9.166;2023-05-20T03:45:23;11.10;81.70
23633;DHT22;11993;48.748;9.166;2023-05-20T03:47:49;11.10;81.60
23633;DHT22;11993;48.748;9.166;2023-05-20T03:50:14;11.20;81.30
23633;DHT22;11993;48.748;9.166;2023-05-20T03:52:40;11.30;81.20
23633;DHT22;11993;48.748;9.166;2023-05-20T03:55:06;11.20;81.40
23633;DHT22;11993;48.748;9.166;2023-05-20T03:57:32;11.30;81.50
23633;DHT22;11993;48.748;9.166;2023-05-20T03:59:58;11.40;81.10
23633;DHT22;11993;48.748;9.166;2023-05-20T04:02:23;11.40;81.30
23633;DHT22;11993;48.748;9.166;2023-05-20T04:04:49;11.40;81.40
23633;DHT22;11993;48.748;9.166;2023-05-20T04:07:17;11.40;81.40
23633;DHT22;11993;48.748;9.166;2023-05-20T04:09:42;11.40;81.40
23633;DHT22;11993;48.748;9.166;2023-05-20T04:12:08;11.60;81.00
23633;DHT22;11993;48.748;9.166;2023-05-20T04:14:33;11.60;80.80
23633;DHT22;11993;48.748;9.166;2023-05-20T04:17:02;11.60;81.00
23633;DHT22;11993;48.748;9.166;2023-05-20T04:19:27;11.60;80.60
23633;DHT22;11993;48.748;9.166;2023-05-20T04:21:54;11.50;81.20
23633;DHT22;11993;48.748;9.166;2023-05-20T04:24:20;11.60;81.40
23633;DHT22;11993;48.748;9.166;2023-05-20T04:26:50;11.60;80.90
23633;DHT22;11993;48.748;9.166;2023-05-20T04:29:16;11.70;80.90
23633;DHT22;11993;48.748;9.166;2023-05-20T04:31:44;11.80;80.50
23633;DHT22;11993;48.748;9.166;2023-05-20T04:34:10;11.90;80.10
23633;DHT22;11993;48.748;9.166;2023-05-20T04:36:36;11.80;80.30
23633;DHT22;11993;48.748;9.166;2023-05-20T04:39:02;11.90;80.00
23633;DHT22;11993;48.748;9.166;2023-05-20T04:41:29;11.90;80.30
23633;DHT22;11993;48.748;9.166;2023-05-20T04:43:55;11.70;80.60
23633;DHT22;11993;48.748;9.166;2023-05-20T04:46:25;11.70;80.90
23633;DHT22;11993;48.748;9.166;2023-05-20T04:48:51;11.80;80.50
23633;DHT22;11993;48.748;9.166;2023-05-20T04:51:18;11.80;80.70
23633;DHT22;11993;48.748;9.166;2023-05-20T04:53:44;11.80;80.70
23633;DHT22;11993;48.748;9.166;2023-05-20T04:56:10;12.00;80.10
23633;DHT22;11993;48.748;9.166;2023-05-20T04:58:36;12.00;80.30
23633;DHT22;11993;48.748;9.166;2023-05-20T05:01:02;11.90;80.60
23633;DHT22;11993;48.748;9.166;2023-05-20T05:03:27;12.00;80.50
23633;DHT22;11993;48.748;9.166;2023-05-20T05:05:56;12.10;80.20
23633;DHT22;11993;48.748;9.166;2023-05-20T05:08:22;12.10;80.40
23633;DHT22;11993;48.748;9.166;2023-05-20T05:10:48;12.20;80.00
23633;DHT22;11993;48.748;9.166;2023-05-20T05:13:13;12.20;80.10
23633;DHT22;11993;48.748;9.166;2023-05-20T05:15:39;12.10;80.60
23633;DHT22;11993;48.748;9.166;2023-05-20T05:18:05;12.20;80.10
23633;DHT22;11993;48.748;9.166;2023-05-20T05:20:30;12.20;80.00
23633;DHT22;11993;48.748;9.166;2023-05-20T05:22:56;12.20;80.10
23633;DHT22;11993;48.748;9.166;2023-05-20T05:25:21;12.40;79.60
23633;DHT22;11993;48.748;9.166;2023-05-20T05:27:47;12.40;79.70
23633;DHT22;11993;48.748;9.166;2023-05-20T05:30:15;12.40;79.90
23633;DHT22;11993;48.748;9.166;2023-05-20T05:32:40;12.60;79.10
23633;DHT22;11993;48.748;9.166;2023-05-20T05:35:06;12.70;79.00
23633;DHT22;11993;48.748;9.166;2023-05-20T05:37:32;12.90;78.10
23633;DHT22;11993;48.748;9.166;2023-05-20T05:39:58;12.70;78.70
23633;DHT22;11993;48.748;9.166;2023-05-20T05:42:23;12.80;78.50
23633;DHT22;11993;48.748;9.166;2023-05-20T05:44:49;12.90;78.10
23633;DHT22;11993;48.748;9.166;2023-05-20T05:47:14;12.90;78.30
23633;DHT22;11993;48.748;9.166;2023-05-20T05:49:40;13.00;78.10
23633;DHT22;11993;48.748;9.166;2023-05-20T05:52:05;13.10;77.70
23633;DHT22;11993;48.748;9.166;2023-05-20T05:54:31;13.10;78.20
23633;DHT22;11993;48.748;9.166;2023-05-20T05:56:56;13.30;77.70
23633;DHT22;11993;48.748;9.166;2023-05-20T05:59:22;13.40;77.00
23633;DHT22;11993;48.748;9.166;2023-05-20T06:01:48;13.50;76.50
23633;DHT22;11993;48.748;9.166;2023-05-20T06:04:13;13.50;76.80
23633;DHT22;11993;48.748;9.166;2023-05-20T06:06:39;13.50;76.80
23633;DHT22;11993;48.748;9.166;2023-05-20T06:09:05;13.60;76.40
23633;DHT22;11993;48.748;9.166;2023-05-20T06:11:31;13.60;76.00
23633;DHT22;11993;48.748;9.166;2023-05-20T06:13:56;13.70;76.40
23633;DHT22;11993;48.748;9.166;2023-05-20T06:16:22;13.70;76.50
23633;DHT22;11993;48.748;9.166;2023-05-20T06:18:48;14.00;76.00
23633;DHT22;11993;48.748;9.166;2023-05-20T06:21:15;13.90;75.90
23633;DHT22;11993;48.748;9.166;2023-05-20T06:23:40;14.00;76.10
23633;DHT22;11993;48.748;9.166;2023-05-20T06:26:06;14.20;76.10
23633;DHT22;11993;48.748;9.166;2023-05-20T06:28:32;14.10;75.70
23633;DHT22;11993;48.748;9.166;2023-05-20T06:30:57;14.20;75.20
23633;DHT22;11993;48.748;9.166;2023-05-20T06:33:23;14.40;75.00
23633;DHT22;11993;48.748;9.166;2023-05-20T06:35:53;14.50;74.40
23633;DHT22;11993;48.748;9.166;2023-05-20T06:38:19;14.60;74.20
23633;DHT22;11993;48.748;9.166;2023-05-20T06:40:46;14.60;74.30
23633;DHT22;11993;48.748;9.166;2023-05-20T06:43:13;14.50;75.00
23633;DHT22;11993;48.748;9.166;2023-05-20T06:45:38;14.70;74.80
23633;DHT22;11993;48.748;9.166;2023-05-20T06:48:04;14.70;74.50
23633;DHT22;11993;48.748;9.166;2023-05-20T06:50:30;14.90;74.00
23633;DHT22;11993;48.748;9.166;2023-05-20T06:52:55;15.00;73.40
23633;DHT22;11993;48.748;9.166;2023-05-20T06:55:21;14.90;74.00
23633;DHT22;11993;48.748;9.166;2023-05-20T06:57:46;15.10;73.40
23633;DHT22;11993;48.748;9.166;2023-05-20T07:00:12;15.30;72.40
23633;DHT22;11993;48.748;9.166;2023-05-20T07:02:38;15.00;72.50
23633;DHT22;11993;48.748;9.166;2023-05-20T07:05:04;15.10;72.90
23633;DHT22;11993;48.748;9.166;2023-05-20T07:07:30;15.20;72.20
23633;DHT22;11993;48.748;9.166;2023-05-20T07:09:56;15.20;73.70
23633;DHT22;11993;48.748;9.166;2023-05-20T07:12:22;15.40;72.00
23633;DHT22;11993;48.748;9.166;2023-05-20T07:14:47;15.70;71.00
23633;DHT22;11993;48.748;9.166;2023-05-20T07:17:13;16.00;69.80
23633;DHT22;11993;48.748;9.166;2023-05-20T07:19:38;15.80;69.80
23633;DHT22;11993;48.748;9.166;2023-05-20T07:22:04;15.90;69.70
23633;DHT22;11993;48.748;9.166;2023-05-20T07:24:29;16.10;69.40
23633;DHT22;11993;48.748;9.166;2023-05-20T07:26:55;16.20;69.50
23633;DHT22;11993;48.748;9.166;2023-05-20T07:29:21;16.30;69.30
23633;DHT22;11993;48.748;9.166;2023-05-20T07:31:46;16.30;69.80
23633;DHT22;11993;48.748;9.166;2023-05-20T07:34:12;15.60;70.60
23633;DHT22;11993;48.748;9.166;2023-05-20T07:36:37;16.20;68.70
23633;DHT22;11993;48.748;9.166;2023-05-20T07:39:03;16.20;69.30
23633;DHT22;11993;48.748;9.166;2023-05-20T07:41:29;16.60;67.60
23633;DHT22;11993;48.748;9.166;2023-05-20T07:43:55;16.90;66.40
23633;DHT22;11993;48.748;9.166;2023-05-20T07:46:20;16.30;67.60
23633;DHT22;11993;48.748;9.166;2023-05-20T07:48:46;16.70;66.90
23633;DHT22;11993;48.748;9.166;2023-05-20T07:51:11;16.90;66.50
23633;DHT22;11993;48.748;9.166;2023-05-20T07:53:37;16.60;67.80
23633;DHT22;11993;48.748;9.166;2023-05-20T07:56:02;16.50;67.90
23633;DHT22;11993;48.748;9.166;2023-05-20T07:58:28;16.30;68.00
23633;DHT22;11993;48.748;9.166;2023-05-20T08:00:55;16.10;68.90
23633;DHT22;11993;48.748;9.166;2023-05-20T08:03:21;16.70;67.90
23633;DHT22;11993;48.748;9.166;2023-05-20T08:05:47;16.90;67.40
23633;DHT22;11993;48.748;9.166;2023-05-20T08:08:13;16.80;66.90
23633;DHT22;11993;48.748;9.166;2023-05-20T08:10:38;16.90;66.60
23633;DHT22;11993;48.748;9.166;2023-05-20T08:13:04;16.60;68.10
23633;DHT22;11993;48.748;9.166;2023-05-20T08:15:29;16.60;67.90
23633;DHT22;11993;48.748;9.166;2023-05-20T08:17:55;16.70;67.30
23633;DHT22;11993;48.748;9.166;2023-05-20T08:20:21;16.50;67.70
23633;DHT22;11993;48.748;9.166;2023-05-20T08:22:46;16.40;68.90
23633;DHT22;11993;48.748;9.166;2023-05-20T08:25:12;16.00;69.70
23633;DHT22;11993;48.748;9.166;2023-05-20T08:27:38;16.00;69.10
23633;DHT22;11993;48.748;9.166;2023-05-20T08:30:04;16.00;69.30
23633;DHT22;11993;48.748;9.166;2023-05-20T08:32:32;16.00;68.70
23633;DHT22;11993;48.748;9.166;2023-05-20T08:34:57;16.10;68.50
23633;DHT22;11993;48.748;9.166;2023-05-20T08:37:26;16.00;69.00
23633;DHT22;11993;48.748;9.166;2023-05-20T08:39:51;16.00;68.60
23633;DHT22;11993;48.748;9.166;2023-05-20T08:42:23;16.10;68.60
23633;DHT22;11993;48.748;9.166;2023-05-20T08:44:50;16.10;68.30
23633;DHT22;11993;48.748;9.166;2023-05-20T08:47:18;16.30;68.30
23633;DHT22;11993;48.748;9.166;2023-05-20T08:49:44;16.60;67.90
23633;DHT22;11993;48.748;9.166;2023-05-20T08:52:10;16.60;66.90
23633;DHT22;11993;48.748;9.166;2023-05-20T08:54:47;16.90;66.90
23633;DHT22;11993;48.748;9.166;2023-05-20T08:57:12;17.20;65.90
23633;DHT22;11993;48.748;9.166;2023-05-20T08:59:42;17.30;65.00
23633;DHT22;11993;48.748;9.166;2023-05-20T09:02:11;17.30;64.50
23633;DHT22;11993;48.748;9.166;2023-05-20T09:04:37;17.70;64.10
23633;DHT22;11993;48.748;9.166;2023-05-20T09:07:03;17.20;63.60
23633;DHT22;11993;48.748;9.166;2023-05-20T09:09:31;18.40;62.80
23633;DHT22;11993;48.748;9.166;2023-05-20T09:11:58;18.90;62.00
23633;DHT22;11993;48.748;9.166;2023-05-20T09:14:24;19.60;60.60
23633;DHT22;11993;48.748;9.166;2023-05-20T09:16:51;19.50;59.90
23633;DHT22;11993;48.748;9.166;2023-05-20T09:19:19;19.60;59.60
23633;DHT22;11993;48.748;9.166;2023-05-20T09:21:45;19.90;58.20
23633;DHT22;11993;48.748;9.166;2023-05-20T09:24:11;19.70;58.50
23633;DHT22;11993;48.748;9.166;2023-05-20T09:26:37;20.20;58.60
23633;DHT22;11993;48.748;9.166;2023-05-20T09:29:03;20.50;56.70
23633;DHT22;11993;48.748;9.166;2023-05-20T09:31:32;20.40;57.30
23633;DHT22;11993;48.748;9.166;2023-05-20T09:34:01;20.60;56.30
23633;DHT22;11993;48.748;9.166;2023-05-20T09:36:28;21.10;54.30
23633;DHT22;11993;48.748;9.166;2023-05-20T09:38:57;20.60;55.90
23633;DHT22;11993;48.748;9.166;2023-05-20T09:41:27;20.30;56.90
23633;DHT22;11993;48.748;9.166;2023-05-20T09:43:56;19.90;57.80
23633;DHT22;11993;48.748;9.166;2023-05-20T09:46:23;19.60;58.50
23633;DHT22;11993;48.748;9.166;2023-05-20T09:48:48;19.40;59.10
23633;DHT22;11993;48.748;9.166;2023-05-20T09:51:15;20.10;59.10
23633;DHT22;11993;48.748;9.166;2023-05-20T09:53:41;19.90;59.60
23633;DHT22;11993;48.748;9.166;2023-05-20T09:56:07;20.10;58.30
23633;DHT22;11993;48.748;9.166;2023-05-20T09:58:34;20.50;57.30
23633;DHT22;11993;48.748;9.166;2023-05-20T10:01:00;20.20;57.30
23633;DHT22;11993;48.748;9.166;2023-05-20T10:03:26;20.70;57.40
23633;DHT22;11993;48.748;9.166;2023-05-20T10:11:40;21.30;55.50
23633;DHT22;11993;48.748;9.166;2023-05-20T10:19:34;21.20;57.70
23633;DHT22;11993;48.748;9.166;2023-05-20T10:22:06;21.20;55.30
23633;DHT22;11993;48.748;9.166;2023-05-20T10:24:37;21.30;55.00
23633;DHT22;11993;48.748;9.166;2023-05-20T10:27:11;21.20;54.60
23633;DHT22;11993;48.748;9.166;2023-05-20T10:29:49;21.30;54.50
23633;DHT22;11993;48.748;9.166;2023-05-20T10:32:29;22.10;54.30
23633;DHT22;11993;48.748;9.166;2023-05-20T10:35:00;22.10;53.20
23633;DHT22;11993;48.748;9.166;2023-05-20T10:37:28;21.60;53.60
23633;DHT22;11993;48.748;9.166;2023-05-20T10:40:10;21.70;53.90
23633;DHT22;11993;48.748;9.166;2023-05-20T10:42:36;22.40;52.20
23633;DHT22;11993;48.748;9.166;2023-05-20T10:45:03;22.30;52.90
23633;DHT22;11993;48.748;9.166;2023-05-20T10:47:29;21.50;54.40
23633;DHT22;11993;48.748;9.166;2023-05-20T10:49:55;21.40;54.90
23633;DHT22;11993;48.748;9.166;2023-05-20T10:52:23;22.40;53.20
23633;DHT22;11993;48.748;9.166;2023-05-20T10:54:56;22.60;51.20
23633;DHT22;11993;48.748;9.166;2023-05-20T10:57:22;22.80;52.00
23633;DHT22;11993;48.748;9.166;2023-05-20T10:59:49;23.20;50.80
23633;DHT22;11993;48.748;9.166;2023-05-20T11:02:16;23.40;52.00
23633;DHT22;11993;48.748;9.166;2023-05-20T11:04:45;23.50;48.70
23633;DHT22;11993;48.748;9.166;2023-05-20T11:07:30;23.30;49.30
23633;DHT22;11993;48.748;9.166;2023-05-20T11:09:58;23.10;50.10
23633;DHT22;11993;48.748;9.166;2023-05-20T11:12:25;23.40;50.20
23633;DHT22;11993;48.748;9.166;2023-05-20T11:14:51;23.30;48.90
23633;DHT22;11993;48.748;9.166;2023-05-20T11:17:18;23.60;48.80
23633;DHT22;11993;48.748;9.166;2023-05-20T11:19:43;23.90;48.10
23633;DHT22;11993;48.748;9.166;2023-05-20T11:22:09;24.30;47.30
23633;DHT22;11993;48.748;9.166;2023-05-20T11:24:35;23.80;47.20
23633;DHT22;11993;48.748;9.166;2023-05-20T11:27:01;23.50;48.50
23633;DHT22;11993;48.748;9.166;2023-05-20T11:29:27;23.10;49.10
23633;DHT22;11993;48.748;9.166;2023-05-20T11:31:56;22.70;49.00
23633;DHT22;11993;48.748;9.166;2023-05-20T11:34:22;23.50;47.50
23633;DHT22;11993;48.748;9.166;2023-05-20T11:36:54;23.20;47.30
23633;DHT22;11993;48.748;9.166;2023-05-20T11:39:20;23.70;46.30
23633;DHT22;11993;48.748;9.166;2023-05-20T11:41:46;23.70;48.40
23633;DHT22;11993;48.748;9.166;2023-05-20T11:44:12;23.50;47.30
23633;DHT22;11993;48.748;9.166;2023-05-20T11:46:42;22.60;47.70
23633;DHT22;11993;48.748;9.166;2023-05-20T11:49:08;22.90;48.30
23633;DHT22;11993;48.748;9.166;2023-05-20T11:51:33;22.30;50.30
23633;DHT22;11993;48.748;9.166;2023-05-20T11:54:04;22.60;48.70
23633;DHT22;11993;48.748;9.166;2023-05-20T11:56:30;22.80;48.50
23633;DHT22;11993;48.748;9.166;2023-05-20T11:58:59;22.70;49.30
23633;DHT22;11993;48.748;9.166;2023-05-20T12:01:25;22.50;49.30
23633;DHT22;11993;48.748;9.166;2023-05-20T12:03:52;22.30;50.30
23633;DHT22;11993;48.748;9.166;2023-05-20T12:06:18;22.60;49.40
23633;DHT22;11993;48.748;9.166;2023-05-20T12:08:44;22.90;48.70
23633;DHT22;11993;48.748;9.166;2023-05-20T12:11:10;22.70;49.50
23633;DHT22;11993;48.748;9.166;2023-05-20T12:13:36;23.00;50.30
23633;DHT22;11993;48.748;9.166;2023-05-20T12:16:02;23.60;48.80
23633;DHT22;11993;48.748;9.166;2023-05-20T12:18:30;24.60;46.90
23633;DHT22;11993;48.748;9.166;2023-05-20T12:20:56;24.80;45.80
23633;DHT22;11993;48.748;9.166;2023-05-20T12:23:21;25.40;45.00
23633;DHT22;11993;48.748;9.166;2023-05-20T12:25:47;25.10;46.30
23633;DHT22;11993;48.748;9.166;2023-05-20T12:28:14;24.40;45.80
23633;DHT22;11993;48.748;9.166;2023-05-20T12:30:40;24.40;46.90
23633;DHT22;11993;48.748;9.166;2023-05-20T12:33:06;23.50;45.30
23633;DHT22;11993;48.748;9.166;2023-05-20T12:35:39;23.10;46.40
23633;DHT22;11993;48.748;9.166;2023-05-20T12:38:06;23.00;46.40
23633;DHT22;11993;48.748;9.166;2023-05-20T12:40:32;23.60;45.80
23633;DHT22;11993;48.748;9.166;2023-05-20T12:42:59;23.70;47.00
23633;DHT22;11993;48.748;9.166;2023-05-20T12:45:25;23.60;47.20
23633;DHT22;11993;48.748;9.166;2023-05-20T12:47:51;23.90;48.20
23633;DHT22;11993;48.748;9.166;2023-05-20T12:50:16;23.10;47.90
23633;DHT22;11993;48.748;9.166;2023-05-20T12:52:42;23.00;47.70
23633;DHT22;11993;48.748;9.166;2023-05-20T12:55:08;22.90;47.80
23633;DHT22;11993;48.748;9.166;2023-05-20T12:57:42;22.70;47.10
23633;DHT22;11993;48.748;9.166;2023-05-20T13:00:08;23.00;47.50
23633;DHT22;11993;48.748;9.166;2023-05-20T13:02:38;23.50;45.90
23633;DHT22;11993;48.748;9.166;2023-05-20T13:05:04;23.90;47.00
23633;DHT22;11993;48.748;9.166;2023-05-20T13:07:30;23.70;45.40
23633;DHT22;11993;48.748;9.166;2023-05-20T13:09:57;23.20;46.90
23633;DHT22;11993;48.748;9.166;2023-05-20T13:12:23;23.40;45.50
23633;DHT22;11993;48.748;9.166;2023-05-20T13:14:48;23.70;46.10
23633;DHT22;11993;48.748;9.166;2023-05-20T13:17:14;24.10;45.00
23633;DHT22;11993;48.748;9.166;2023-05-20T13:19:39;24.00;44.30
23633;DHT22;11993;48.748;9.166;2023-05-20T13:22:05;24.10;44.20
23633;DHT22;11993;48.748;9.166;2023-05-20T13:24:31;24.30;44.20
23633;DHT22;11993;48.748;9.166;2023-05-20T13:26:56;24.30;43.20
23633;DHT22;11993;48.748;9.166;2023-05-20T13:29:22;24.00;44.90
23633;DHT22;11993;48.748;9.166;2023-05-20T13:31:47;24.10;44.80
23633;DHT22;11993;48.748;9.166;2023-05-20T13:34:14;24.20;44.60
23633;DHT22;11993;48.748;9.166;2023-05-20T13:36:39;25.00;43.70
23633;DHT22;11993;48.748;9.166;2023-05-20T13:39:05;25.60;43.80
23633;DHT22;11993;48.748;9.166;2023-05-20T13:41:31;25.10;43.60
23633;DHT22;11993;48.748;9.166;2023-05-20T13:43:57;24.60;44.40
23633;DHT22;11993;48.748;9.166;2023-05-20T13:46:22;24.20;45.20
23633;DHT22;11993;48.748;9.166;2023-05-20T13:48:48;23.20;45.60
23633;DHT22;11993;48.748;9.166;2023-05-20T13:51:14;23.00;46.10
23633;DHT22;11993;48.748;9.166;2023-05-20T13:53:39;22.60;46.80
23633;DHT22;11993;48.748;9.166;2023-05-20T13:56:05;22.30;47.40
23633;DHT22;11993;48.748;9.166;2023-05-20T13:58:34;22.40;47.30
23633;DHT22;11993;48.748;9.166;2023-05-20T14:00:59;22.60;47.80
23633;DHT22;11993;48.748;9.166;2023-05-20T14:03:25;22.70;48.00
23633;DHT22;11993;48.748;9.166;2023-05-20T14:05:50;22.70;47.60
23633;DHT22;11993;48.748;9.166;2023-05-20T14:08:16;22.90;47.00
23633;DHT22;11993;48.748;9.166;2023-05-20T14:10:41;23.00;46.90
23633;DHT22;11993;48.748;9.166;2023-05-20T14:13:07;22.60;47.00
23633;DHT22;11993;48.748;9.166;2023-05-20T14:15:35;22.70;46.70
23633;DHT22;11993;48.748;9.166;2023-05-20T14:18:00;22.90;46.70
23633;DHT22;11993;48.748;9.166;2023-05-20T14:20:26;23.00;47.30
23633;DHT22;11993;48.748;9.166;2023-05-20T14:22:51;23.00;46.50
23633;DHT22;11993;48.748;9.166;2023-05-20T14:25:17;23.00;47.60
23633;DHT22;11993;48.748;9.166;2023-05-20T14:27:43;22.90;47.40
23633;DHT22;11993;48.748;9.166;2023-05-20T14:30:09;23.10;47.50
23633;DHT22;11993;48.748;9.166;2023-05-20T14:32:35;23.10;47.50
23633;DHT22;11993;48.748;9.166;2023-05-20T14:35:01;23.10;45.90
23633;DHT22;11993;48.748;9.166;2023-05-20T14:37:26;23.00;46.50
23633;DHT22;11993;48.748;9.166;2023-05-20T14:39:53;22.60;46.50
23633;DHT22;11993;48.748;9.166;2023-05-20T14:42:18;22.80;46.70
23633;DHT22;11993;48.748;9.166;2023-05-20T14:44:44;22.70;46.30
23633;DHT22;11993;48.748;9.166;2023-05-20T14:47:10;22.90;46.90
23633;DHT22;11993;48.748;9.166;2023-05-20T14:49:35;22.80;46.80
23633;DHT22;11993;48.748;9.166;2023-05-20T14:52:04;22.70;46.70
23633;DHT22;11993;48.748;9.166;2023-05-20T14:54:31;22.90;46.50
23633;DHT22;11993;48.748;9.166;2023-05-20T14:56:57;22.90;46.80
23633;DHT22;11993;48.748;9.166;2023-05-20T14:59:23;23.20;46.40
23633;DHT22;11993;48.748;9.166;2023-05-20T15:01:48;23.10;47.10
23633;DHT22;11993;48.748;9.166;2023-05-20T15:04:14;23.00;46.50
23633;DHT22;11993;48.748;9.166;2023-05-20T15:06:39;22.80;47.60
23633;DHT22;11993;48.748;9.166;2023-05-20T15:09:05;22.40;47.30
23633;DHT22;11993;48.748;9.166;2023-05-20T15:11:31;22.70;47.50
23633;DHT22;11993;48.748;9.166;2023-05-20T15:13:57;22.70;47.50
23633;DHT22;11993;48.748;9.166;2023-05-20T15:16:23;22.80;46.50
23633;DHT22;11993;48.748;9.166;2023-05-20T15:18:52;22.70;46.60
23633;DHT22;11993;48.748;9.166;2023-05-20T15:21:17;22.40;47.50
23633;DHT22;11993;48.748;9.166;2023-05-20T15:23:43;22.60;48.00
23633;DHT22;11993;48.748;9.166;2023-05-20T15:26:08;22.10;48.20
23633;DHT22;11993;48.748;9.166;2023-05-20T15:28:40;22.30;48.10
23633;DHT22;11993;48.748;9.166;2023-05-20T15:31:06;22.50;47.30
23633;DHT22;11993;48.748;9.166;2023-05-20T15:33:31;22.50;47.20
23633;DHT22;11993;48.748;9.166;2023-05-20T15:35:57;22.60;47.20
23633;DHT22;11993;48.748;9.166;2023-05-20T15:38:23;22.80;46.80